Time;durP1;ratioP1;P1;durP2;ratioP2;P2;SDS_P1;SDS_P2;PMS_P1;PMS_P2;Temp;Humidity;BMP_temperature;BMP_pressure;BME280_temperature;BME280_humidity;BME280_pressure;Samples;Min_cycle;Max_cycle;Signal;HPM_P1;HPM_P2
2023/01/29 00:02:08;;;;;;;17.13;14.27;;;3.50;99.90;;;;;;5007981;28;20049;-65
2023/01/29 00:04:34;;;;;;;18.65;14.10;;;3.50;99.90;;;;;;5006858;28;20046;-65
2023/01/29 00:07:00;;;;;;;17.25;12.93;;;3.60;99.90;;;;;;5009340;28;20046;-65
2023/01/29 00:09:27;;;;;;;18.17;13.60;;;3.50;99.90;;;;;;5006080;28;20029;-65
2023/01/29 00:11:53;;;;;;;15.85;12.30;;;3.50;99.90;;;;;;4991635;28;20482;-65
2023/01/29 00:14:19;;;;;;;16.50;12.88;;;3.50;99.90;;;;;;5007791;28;20088;-65
2023/01/29 00:16:44;;;;;;;16.88;12.25;;;3.50;99.90;;;;;;4989811;28;20042;-65
2023/01/29 00:19:10;;;;;;;18.13;12.95;;;3.50;99.90;;;;;;5006403;28;20480;-65
2023/01/29 00:21:36;;;;;;;15.55;12.45;;;3.50;99.90;;;;;;5009460;28;20053;-65
2023/01/29 00:24:01;;;;;;;18.30;12.95;;;3.50;99.90;;;;;;5007526;28;20037;-65
2023/01/29 00:26:27;;;;;;;20.17;12.52;;;3.50;99.90;;;;;;4990090;28;20095;-65
2023/01/29 00:28:55;;;;;;;18.35;13.20;;;3.50;99.90;;;;;;5007914;28;20470;-65
2023/01/29 00:31:23;;;;;;;18.52;13.20;;;3.50;99.90;;;;;;5008320;28;20050;-65
2023/01/29 00:33:49;;;;;;;20.00;13.57;;;3.50;99.90;;;;;;4987356;28;20050;-65
2023/01/29 00:36:18;;;;;;;15.40;12.55;;;3.50;99.90;;;;;;5005121;28;20292;-65
2023/01/29 00:38:53;;;;;;;18.35;13.55;;;3.60;99.90;;;;;;4989967;28;20556;-65
2023/01/29 00:46:48;;;;;;;18.55;13.40;;;3.50;99.90;;;;;;5008191;28;20084;-65
2023/01/29 00:49:14;;;;;;;16.58;12.93;;;3.50;99.90;;;;;;4988108;28;20042;-65
2023/01/29 00:51:40;;;;;;;16.75;12.90;;;3.60;99.90;;;;;;5006898;28;20049;-65
2023/01/29 00:54:06;;;;;;;19.30;13.73;;;3.60;99.90;;;;;;5005123;28;20068;-65
2023/01/29 00:56:34;;;;;;;17.67;12.45;;;3.60;99.90;;;;;;4992132;28;20413;-65
2023/01/29 00:58:59;;;;;;;16.02;13.73;;;3.60;99.90;;;;;;5003821;28;20050;-65
2023/01/29 01:04:11;;;;;;;16.13;13.90;;;3.60;99.90;;;;;;5011585;28;20509;-65
2023/01/29 01:06:41;;;;;;;17.58;14.02;;;3.70;99.90;;;;;;4993379;28;20085;-65
2023/01/29 01:11:52;;;;;;;16.45;13.63;;;3.60;99.90;;;;;;5012997;28;20107;-65
2023/01/29 01:14:20;;;;;;;17.23;13.02;;;3.60;99.90;;;;;;5013078;28;20038;-65
2023/01/29 01:16:46;;;;;;;17.23;13.32;;;3.60;99.90;;;;;;5012888;28;20107;-65
2023/01/29 01:19:14;;;;;;;17.40;13.45;;;3.60;99.90;;;;;;5012353;28;20073;-65
2023/01/29 01:21:44;;;;;;;15.23;12.82;;;3.60;99.90;;;;;;5010628;28;20485;-65
2023/01/29 01:24:11;;;;;;;16.48;13.32;;;3.70;99.90;;;;;;5011808;28;20026;-65
2023/01/29 01:26:36;;;;;;;19.92;13.63;;;3.60;99.90;;;;;;5012489;28;20037;-65
2023/01/29 01:29:02;;;;;;;16.83;13.32;;;3.70;99.90;;;;;;5012325;28;20048;-66
2023/01/29 01:31:28;;;;;;;19.73;14.40;;;3.70;99.90;;;;;;5012747;28;20104;-65
2023/01/29 01:33:54;;;;;;;18.77;14.02;;;3.70;99.90;;;;;;4994694;28;20052;-65
2023/01/29 01:36:20;;;;;;;18.10;13.48;;;3.70;99.90;;;;;;5009242;28;20129;-65
2023/01/29 01:38:46;;;;;;;18.15;14.13;;;3.70;99.90;;;;;;5010903;28;20124;-65
2023/01/29 01:41:17;;;;;;;18.95;14.32;;;3.70;99.90;;;;;;4991862;28;20040;-66
2023/01/29 01:44:03;;;;;;;17.90;13.70;;;3.70;99.90;;;;;;5010686;28;20445;-65
2023/01/29 01:46:32;;;;;;;19.13;13.15;;;3.70;99.90;;;;;;4974898;28;20045;-66
2023/01/29 01:49:20;;;;;;;19.75;14.23;;;3.70;99.90;;;;;;5009807;28;20104;-65
2023/01/29 01:51:49;;;;;;;19.50;14.43;;;3.70;99.90;;;;;;5012149;28;20034;-65
2023/01/29 01:54:29;;;;;;;16.10;13.07;;;3.80;99.90;;;;;;5009777;28;20065;-65
2023/01/29 01:57:08;;;;;;;17.05;12.88;;;3.70;99.90;;;;;;5009718;28;20151;-65
2023/01/29 01:59:37;;;;;;;19.08;13.30;;;3.70;99.90;;;;;;4991607;28;20057;-66
2023/01/29 02:10:24;;;;;;;17.63;13.77;;;3.70;99.90;;;;;;4991368;28;20041;-65
2023/01/29 02:12:50;;;;;;;19.05;14.32;;;3.80;99.90;;;;;;5011003;28;20130;-65
2023/01/29 02:15:16;;;;;;;17.55;13.15;;;3.80;99.90;;;;;;5011439;28;20037;-65
2023/01/29 02:17:46;;;;;;;19.00;14.07;;;3.80;99.90;;;;;;5006906;28;20029;-66
2023/01/29 02:20:40;;;;;;;18.77;14.27;;;3.80;99.90;;;;;;5008880;28;20051;-65
2023/01/29 02:23:12;;;;;;;16.83;13.85;;;3.80;99.90;;;;;;4988427;28;20060;-66
2023/01/29 02:25:58;;;;;;;18.13;13.55;;;3.80;99.90;;;;;;5011413;28;20403;-65
2023/01/29 02:28:53;;;;;;;16.15;13.63;;;3.80;99.90;;;;;;4992798;28;20081;-65
2023/01/29 02:31:41;;;;;;;18.83;14.07;;;3.80;99.90;;;;;;5009313;28;20506;-65
2023/01/29 02:37:35;;;;;;;19.88;13.32;;;3.80;99.90;;;;;;5008769;28;20179;-65
2023/01/29 02:40:27;;;;;;;16.60;13.55;;;3.80;99.90;;;;;;5007903;28;20309;-65
2023/01/29 02:43:03;;;;;;;17.77;13.98;;;3.80;99.90;;;;;;4995214;28;20335;-65
2023/01/29 02:45:42;;;;;;;17.60;14.55;;;3.80;99.90;;;;;;5009815;28;20037;-65
2023/01/29 02:48:17;;;;;;;17.17;13.38;;;3.80;99.90;;;;;;5009731;28;20036;-65
2023/01/29 02:50:58;;;;;;;17.20;12.73;;;3.80;99.90;;;;;;5009146;28;20042;-65
2023/01/29 02:53:26;;;;;;;16.92;13.45;;;3.80;99.90;;;;;;5009592;28;20048;-65
2023/01/29 02:56:15;;;;;;;18.95;13.85;;;3.80;99.90;;;;;;5010812;28;20037;-65
2023/01/29 02:58:49;;;;;;;16.38;13.15;;;3.80;99.90;;;;;;4993292;28;20053;-65
2023/01/29 03:01:25;;;;;;;18.33;13.43;;;3.80;99.90;;;;;;5010227;28;20076;-65
2023/01/29 03:03:59;;;;;;;17.58;13.73;;;3.80;99.90;;;;;;5009496;28;20041;-65
2023/01/29 03:06:31;;;;;;;15.98;13.55;;;3.80;99.90;;;;;;5004176;28;20046;-65
2023/01/29 03:08:59;;;;;;;19.15;13.90;;;3.80;99.90;;;;;;5008629;28;20511;-65
2023/01/29 03:11:31;;;;;;;16.80;13.38;;;3.80;99.90;;;;;;5009001;28;20409;-65
2023/01/29 03:14:09;;;;;;;16.60;13.52;;;3.90;99.90;;;;;;4992062;28;20050;-65
2023/01/29 03:16:49;;;;;;;18.00;14.38;;;3.80;99.90;;;;;;4993164;28;20525;-65
2023/01/29 03:19:39;;;;;;;16.10;13.38;;;3.80;99.90;;;;;;4991423;28;20132;-65
2023/01/29 03:22:07;;;;;;;15.55;13.50;;;3.80;99.90;;;;;;4991066;28;20110;-65
2023/01/29 03:33:58;;;;;;;17.85;13.70;;;3.80;99.90;;;;;;5007086;28;20049;-65
2023/01/29 03:36:48;;;;;;;17.15;13.60;;;3.80;99.90;;;;;;5006037;28;20390;-65
2023/01/29 03:39:15;;;;;;;17.58;14.18;;;3.80;99.90;;;;;;5005750;28;20516;-65
2023/01/29 03:41:53;;;;;;;18.33;14.35;;;3.80;99.90;;;;;;4991069;28;20285;-65
2023/01/29 03:44:27;;;;;;;18.10;14.15;;;3.80;99.90;;;;;;4990978;28;20152;-66
2023/01/29 03:47:07;;;;;;;20.02;15.50;;;3.80;99.90;;;;;;5007420;28;20121;-65
2023/01/29 03:50:00;;;;;;;18.83;14.50;;;3.90;99.90;;;;;;5003261;28;20417;-65
2023/01/29 03:53:01;;;;;;;17.00;15.23;;;3.90;99.90;;;;;;5007387;28;20104;-65
2023/01/29 03:55:28;;;;;;;19.95;15.57;;;3.90;99.90;;;;;;5007361;28;20103;-65
2023/01/29 03:58:04;;;;;;;19.55;15.45;;;3.90;99.90;;;;;;5008837;28;20057;-65
2023/01/29 04:00:57;;;;;;;20.20;16.27;;;3.90;99.90;;;;;;5006923;28;20034;-65
2023/01/29 04:03:36;;;;;;;20.30;16.75;;;3.90;99.90;;;;;;5007910;28;20143;-65
2023/01/29 04:06:17;;;;;;;22.85;16.85;;;4.00;99.90;;;;;;5008862;28;20049;-65
2023/01/29 04:08:57;;;;;;;22.40;17.00;;;3.90;99.90;;;;;;5009254;28;20038;-66
2023/01/29 04:11:26;;;;;;;20.67;17.08;;;3.90;99.90;;;;;;5007782;28;20038;-65
2023/01/29 04:13:52;;;;;;;19.50;16.83;;;4.00;99.90;;;;;;4990377;28;20042;-65
2023/01/29 04:16:25;;;;;;;21.83;17.20;;;3.90;99.90;;;;;;4973060;28;20475;-65
2023/01/29 04:18:53;;;;;;;20.20;16.85;;;3.90;99.90;;;;;;4991005;28;20060;-65
2023/01/29 04:21:19;;;;;;;21.08;17.75;;;4.00;99.90;;;;;;4988497;28;20049;-65
2023/01/29 04:23:44;;;;;;;22.98;17.63;;;4.00;99.90;;;;;;5008034;28;20042;-65
2023/01/29 04:26:49;;;;;;;21.70;18.20;;;4.00;99.90;;;;;;4991972;28;20034;-65
2023/01/29 04:29:36;;;;;;;21.48;17.83;;;4.00;99.90;;;;;;5007036;28;20053;-65
2023/01/29 04:32:12;;;;;;;21.52;17.35;;;4.00;99.90;;;;;;5004206;28;20076;-65
2023/01/29 04:34:45;;;;;;;25.23;18.33;;;3.90;99.90;;;;;;5005104;28;20096;-65
2023/01/29 04:37:18;;;;;;;20.52;17.48;;;4.00;99.90;;;;;;5008671;28;20361;-65
2023/01/29 04:39:53;;;;;;;21.35;17.33;;;4.00;99.90;;;;;;5003918;28;20049;-65
2023/01/29 04:42:39;;;;;;;;;;;4.00;99.90;;;;;;4990866;28;20080;-65
2023/01/29 04:45:28;;;;;;;21.80;17.58;;;4.00;99.90;;;;;;4990216;28;19928;-66
2023/01/29 04:48:09;;;;;;;22.42;18.05;;;4.00;99.90;;;;;;4984470;28;20049;-65
2023/01/29 04:50:43;;;;;;;23.13;18.73;;;4.00;99.90;;;;;;5007792;28;20096;-66
2023/01/29 04:53:18;;;;;;;21.38;18.10;;;4.00;99.90;;;;;;4990103;28;20427;-66
2023/01/29 04:56:03;;;;;;;25.42;19.50;;;4.00;99.90;;;;;;5008680;28;20046;-65
2023/01/29 04:58:32;;;;;;;;;;;4.00;99.90;;;;;;4991698;28;20506;-65
2023/01/29 05:00:59;;;;;;;22.23;17.60;;;4.00;99.90;;;;;;5006159;28;19980;-65
2023/01/29 05:03:27;;;;;;;24.45;18.92;;;4.00;99.90;;;;;;4989956;28;20156;-65
2023/01/29 05:05:56;;;;;;;22.63;19.00;;;4.00;99.90;;;;;;5007953;28;20057;-65
2023/01/29 05:08:24;;;;;;;23.63;19.15;;;4.00;99.90;;;;;;4990904;28;20049;-65
2023/01/29 05:10:51;;;;;;;22.75;19.08;;;4.00;99.90;;;;;;4996150;28;20133;-65
2023/01/29 05:13:20;;;;;;;24.98;20.52;;;4.00;99.90;;;;;;5008736;28;20474;-65
2023/01/29 05:16:14;;;;;;;23.70;19.83;;;4.00;99.90;;;;;;5006377;28;20041;-65
2023/01/29 05:18:40;;;;;;;23.35;19.05;;;4.00;99.90;;;;;;5009091;28;20048;-65
2023/01/29 05:21:07;;;;;;;21.33;18.63;;;4.00;99.90;;;;;;5007757;28;20041;-65
2023/01/29 05:23:33;;;;;;;21.25;18.73;;;3.90;99.90;;;;;;5008652;28;20123;-66
2023/01/29 05:25:59;;;;;;;25.73;19.63;;;4.00;99.90;;;;;;5009013;28;20064;-65
2023/01/29 05:28:25;;;;;;;25.58;20.45;;;4.10;99.90;;;;;;4990544;28;20038;-65
2023/01/29 05:30:53;;;;;;;27.55;19.92;;;4.00;99.90;;;;;;4989294;28;20046;-65
2023/01/29 05:33:25;;;;;;;22.52;19.00;;;4.00;99.90;;;;;;5007213;28;20116;-66
2023/01/29 05:35:51;;;;;;;23.55;20.00;;;4.10;99.90;;;;;;5005801;28;20042;-65
2023/01/29 05:38:18;;;;;;;24.42;20.25;;;4.00;99.90;;;;;;4988926;28;20042;-65
2023/01/29 05:40:44;;;;;;;23.08;20.05;;;4.00;99.90;;;;;;4990281;28;20046;-65
2023/01/29 05:43:18;;;;;;;25.27;20.55;;;4.10;99.90;;;;;;5007457;28;20053;-65
2023/01/29 05:45:57;;;;;;;22.20;19.80;;;4.00;99.90;;;;;;4994335;28;20041;-65
2023/01/29 05:48:24;;;;;;;23.67;20.27;;;4.00;99.90;;;;;;5008529;28;20034;-65
2023/01/29 05:50:50;;;;;;;25.73;21.25;;;4.00;99.90;;;;;;5011919;28;20046;-65
2023/01/29 05:53:16;;;;;;;24.27;20.00;;;4.00;99.90;;;;;;4988912;28;20502;-66
2023/01/29 05:55:45;;;;;;;25.73;21.20;;;4.00;99.90;;;;;;5010779;28;20141;-65
2023/01/29 05:58:11;;;;;;;24.98;20.73;;;3.90;99.90;;;;;;5010954;28;20049;-66
2023/01/29 06:00:37;;;;;;;24.80;21.13;;;4.00;99.90;;;;;;5009647;28;20510;-66
2023/01/29 06:03:04;;;;;;;24.40;21.30;;;4.00;99.90;;;;;;5007851;28;20116;-66
2023/01/29 06:05:29;;;;;;;24.02;21.42;;;4.00;99.90;;;;;;4990434;28;20038;-65
2023/01/29 06:07:55;;;;;;;23.67;19.77;;;4.00;99.90;;;;;;5011328;28;20037;-65
2023/01/29 06:10:21;;;;;;;24.38;21.77;;;4.00;99.90;;;;;;5009812;28;20042;-65
2023/01/29 06:12:47;;;;;;;25.00;21.33;;;3.90;99.90;;;;;;5009865;28;20112;-66
2023/01/29 06:15:16;;;;;;;26.15;22.13;;;3.90;99.90;;;;;;5009315;28;20029;-65
2023/01/29 06:17:42;;;;;;;25.30;21.80;;;3.90;99.90;;;;;;5009949;28;20073;-65
2023/01/29 06:20:09;;;;;;;26.75;21.38;;;3.90;99.90;;;;;;4992558;28;20069;-65
2023/01/29 06:22:34;;;;;;;25.75;21.58;;;3.90;99.90;;;;;;5009598;28;20045;-65
2023/01/29 06:25:00;;;;;;;27.30;22.30;;;3.90;99.90;;;;;;5010973;28;20127;-65
2023/01/29 06:27:26;;;;;;;27.25;22.23;;;3.80;99.90;;;;;;5009510;28;20433;-65
2023/01/29 06:29:51;;;;;;;25.52;20.48;;;3.80;99.90;;;;;;5010009;28;20050;-65
2023/01/29 06:32:17;;;;;;;26.85;22.15;;;3.90;99.90;;;;;;5011046;28;20501;-65
2023/01/29 06:34:43;;;;;;;26.10;21.58;;;3.90;99.90;;;;;;5007099;28;20127;-65
2023/01/29 06:37:08;;;;;;;23.10;20.60;;;4.00;99.90;;;;;;5008585;28;20046;-66
2023/01/29 06:39:34;;;;;;;26.00;21.48;;;3.90;99.90;;;;;;4991321;28;20044;-65
2023/01/29 06:42:00;;;;;;;25.25;21.90;;;3.90;99.90;;;;;;5008341;28;20034;-65
2023/01/29 06:44:25;;;;;;;25.83;21.23;;;3.80;99.90;;;;;;5006648;28;20112;-65
2023/01/29 06:46:51;;;;;;;24.38;21.00;;;3.90;99.90;;;;;;4988278;28;20533;-65
2023/01/29 06:49:17;;;;;;;26.25;22.02;;;3.90;99.90;;;;;;4990349;28;20557;-65
2023/01/29 06:51:43;;;;;;;24.73;21.45;;;3.90;99.90;;;;;;5003303;28;20092;-65
2023/01/29 06:54:09;;;;;;;26.52;22.67;;;3.90;99.90;;;;;;4983742;28;20417;-66
2023/01/29 06:56:35;;;;;;;28.67;23.23;;;3.90;99.90;;;;;;5008134;28;20062;-65
2023/01/29 06:59:01;;;;;;;25.90;21.85;;;3.90;99.90;;;;;;5004953;28;20045;-65
2023/01/29 07:01:27;;;;;;;26.70;22.33;;;3.80;99.90;;;;;;5006694;28;20045;-65
2023/01/29 07:03:52;;;;;;;27.35;21.67;;;3.90;99.90;;;;;;5006956;28;20093;-65
2023/01/29 07:06:18;;;;;;;24.35;21.15;;;3.90;99.90;;;;;;5008059;28;20041;-65
2023/01/29 07:08:44;;;;;;;26.67;21.77;;;3.80;99.90;;;;;;5009367;28;20041;-65
2023/01/29 07:11:10;;;;;;;28.00;21.92;;;3.80;99.90;;;;;;5007875;28;20038;-65
2023/01/29 07:13:36;;;;;;;27.98;22.77;;;3.90;99.90;;;;;;5007751;28;20045;-65
2023/01/29 07:16:03;;;;;;;28.80;23.02;;;3.90;99.90;;;;;;5008439;28;20125;-65
2023/01/29 07:18:30;;;;;;;26.60;22.85;;;3.90;99.90;;;;;;4991763;28;20117;-65
2023/01/29 07:20:56;;;;;;;27.90;22.95;;;3.90;99.90;;;;;;5005548;28;20048;-65
2023/01/29 07:23:22;;;;;;;28.73;22.65;;;3.80;99.90;;;;;;4990801;28;20125;-65
2023/01/29 07:25:48;;;;;;;27.60;23.05;;;3.90;99.90;;;;;;4989900;28;20058;-65
2023/01/29 07:28:19;;;;;;;26.75;22.27;;;3.90;99.90;;;;;;4993068;28;20144;-65
2023/01/29 07:30:45;;;;;;;25.40;22.25;;;3.80;99.90;;;;;;4989851;28;20119;-65
2023/01/29 07:33:11;;;;;;;28.58;23.45;;;3.80;99.90;;;;;;5008083;28;20459;-65
2023/01/29 07:35:42;;;;;;;26.70;22.20;;;3.80;99.90;;;;;;5001177;28;20051;-65
2023/01/29 07:38:09;;;;;;;28.25;23.42;;;3.90;99.90;;;;;;5005190;28;20044;-65
2023/01/29 07:40:35;;;;;;;28.77;23.13;;;3.90;99.90;;;;;;5004209;28;20046;-65
2023/01/29 07:43:04;;;;;;;28.48;23.73;;;3.80;99.90;;;;;;5007776;28;20048;-66
2023/01/29 07:45:30;;;;;;;27.83;23.15;;;3.90;99.90;;;;;;4991325;28;20042;-65
2023/01/29 07:47:56;;;;;;;27.17;23.95;;;3.80;99.90;;;;;;5005056;28;20119;-66
2023/01/29 07:50:23;;;;;;;26.35;23.48;;;3.90;99.90;;;;;;5006961;28;20042;-65
2023/01/29 07:52:49;;;;;;;27.52;22.70;;;3.90;99.90;;;;;;5008012;28;20049;-66
2023/01/29 07:55:15;;;;;;;29.02;24.67;;;3.90;99.90;;;;;;5007955;28;20542;-66
2023/01/29 07:57:41;;;;;;;31.60;25.17;;;3.90;99.90;;;;;;5005727;28;20104;-66
2023/01/29 08:00:07;;;;;;;29.42;23.02;;;3.90;99.90;;;;;;4988367;28;20493;-65
2023/01/29 08:02:33;;;;;;;29.58;23.98;;;3.90;99.90;;;;;;5005138;28;20107;-65
2023/01/29 08:04:59;;;;;;;30.02;23.70;;;3.90;99.90;;;;;;5007552;28;20101;-65
2023/01/29 08:07:25;;;;;;;30.15;23.92;;;3.90;99.90;;;;;;5005575;28;20507;-65
2023/01/29 08:09:50;;;;;;;30.05;24.98;;;3.90;99.90;;;;;;5005711;28;20038;-65
2023/01/29 08:12:16;;;;;;;29.42;23.65;;;3.90;99.90;;;;;;5005057;28;20427;-64
2023/01/29 08:14:42;;;;;;;33.72;25.80;;;4.00;99.90;;;;;;4988465;28;20117;-65
2023/01/29 08:17:07;;;;;;;31.98;25.25;;;4.00;99.90;;;;;;4986489;28;20046;-65
2023/01/29 08:19:33;;;;;;;30.35;25.33;;;4.00;99.90;;;;;;4986040;28;20050;-65
2023/01/29 08:21:59;;;;;;;31.25;25.17;;;4.00;99.90;;;;;;4984950;28;20054;-64
2023/01/29 08:24:24;;;;;;;28.70;23.73;;;4.00;99.90;;;;;;4993019;28;20121;-65
2023/01/29 08:26:50;;;;;;;32.75;24.70;;;4.10;99.90;;;;;;4987051;28;20056;-65
2023/01/29 08:29:16;;;;;;;30.67;25.08;;;4.10;99.90;;;;;;5003158;28;20065;-64
2023/01/29 08:31:42;;;;;;;30.95;24.77;;;4.10;99.90;;;;;;5001574;28;20045;-64
2023/01/29 08:34:07;;;;;;;28.13;24.27;;;4.10;99.90;;;;;;5002803;28;20121;-64
2023/01/29 08:36:33;;;;;;;29.42;23.40;;;4.10;99.90;;;;;;4985013;28;20042;-64
2023/01/29 08:38:59;;;;;;;29.40;23.73;;;4.20;99.90;;;;;;5003669;28;20547;-65
2023/01/29 08:41:25;;;;;;;30.63;24.42;;;4.20;99.90;;;;;;5005413;28;20045;-65
2023/01/29 08:43:50;;;;;;;32.33;24.30;;;4.20;99.90;;;;;;5001736;28;20600;-65
2023/01/29 08:46:16;;;;;;;33.85;24.88;;;4.40;99.90;;;;;;5005046;28;20038;-65
2023/01/29 08:48:42;;;;;;;29.30;24.35;;;4.30;99.90;;;;;;4985272;28;20112;-65
2023/01/29 08:51:08;;;;;;;30.23;24.13;;;4.40;99.90;;;;;;5003849;28;20575;-65
2023/01/29 08:53:34;;;;;;;30.48;25.13;;;4.40;99.90;;;;;;5004732;28;20042;-65
2023/01/29 08:55:59;;;;;;;29.75;23.35;;;4.30;99.90;;;;;;5006707;28;20535;-65
2023/01/29 08:58:25;;;;;;;31.20;24.25;;;4.40;99.90;;;;;;5005463;28;20452;-65
2023/01/29 09:00:51;;;;;;;30.52;23.90;;;4.50;99.90;;;;;;4988520;28;20049;-65
2023/01/29 09:03:17;;;;;;;28.95;24.02;;;4.50;99.90;;;;;;5004726;28;20504;-65
2023/01/29 09:05:43;;;;;;;29.48;23.38;;;4.50;99.90;;;;;;4985819;28;20447;-65
2023/01/29 09:08:09;;;;;;;30.38;24.17;;;4.50;99.90;;;;;;4985988;28;20068;-65
2023/01/29 09:10:35;;;;;;;31.88;24.73;;;4.50;99.90;;;;;;5004067;28;20046;-65
2023/01/29 09:13:01;;;;;;;28.92;24.23;;;4.50;99.90;;;;;;5003510;28;20540;-65
2023/01/29 09:15:27;;;;;;;30.55;24.60;;;4.60;99.90;;;;;;5007314;28;20112;-65
2023/01/29 09:17:52;;;;;;;29.25;25.08;;;4.60;99.90;;;;;;5008981;28;20477;-65
2023/01/29 09:20:18;;;;;;;31.17;25.08;;;4.60;99.90;;;;;;5010193;28;20045;-65
2023/01/29 09:22:45;;;;;;;31.23;24.17;;;4.60;99.90;;;;;;5012236;28;20060;-65
2023/01/29 09:25:12;;;;;;;32.10;24.58;;;4.60;99.90;;;;;;5008403;28;20038;-65
2023/01/29 09:27:38;;;;;;;27.63;23.35;;;4.70;99.90;;;;;;5009224;28;20770;-65
2023/01/29 09:30:04;;;;;;;30.88;25.33;;;4.80;99.90;;;;;;5008938;28;20173;-65
2023/01/29 09:32:32;;;;;;;32.55;24.33;;;4.90;99.90;;;;;;4993927;28;20467;-65
2023/01/29 09:34:58;;;;;;;31.73;24.88;;;5.00;99.90;;;;;;5011188;28;20759;-65
2023/01/29 09:37:24;;;;;;;34.97;25.45;;;5.00;99.90;;;;;;4993635;28;20100;-65
2023/01/29 09:39:50;;;;;;;32.13;25.15;;;5.00;99.90;;;;;;5011346;28;20462;-65
2023/01/29 09:42:38;;;;;;;28.65;24.17;;;5.00;99.90;;;;;;5013035;28;20382;-65
2023/01/29 09:45:14;;;;;;;32.13;24.75;;;5.00;99.90;;;;;;4978583;28;20050;-65
2023/01/29 09:47:40;;;;;;;27.25;23.13;;;5.00;99.90;;;;;;4995049;28;20520;-65
2023/01/29 09:50:17;;;;;;;33.25;23.80;;;5.00;99.90;;;;;;4995198;28;20037;-65
2023/01/29 09:52:56;;;;;;;29.88;23.42;;;5.00;99.90;;;;;;4989429;28;20143;-65
2023/01/29 09:55:25;;;;;;;27.25;24.25;;;5.00;99.90;;;;;;4989340;28;20065;-65
2023/01/29 09:57:57;;;;;;;28.23;23.42;;;5.00;99.90;;;;;;4992294;28;20053;-65
2023/01/29 10:00:39;;;;;;;30.35;25.42;;;5.10;99.90;;;;;;4994014;28;20046;-65
2023/01/29 10:03:23;;;;;;;28.88;23.85;;;5.00;99.90;;;;;;5010444;28;20130;-65
2023/01/29 10:06:30;;;;;;;29.83;23.90;;;5.10;99.90;;;;;;5011094;28;20096;-65
2023/01/29 10:08:56;;;;;;;28.88;23.75;;;5.10;99.90;;;;;;4991678;28;20052;-65
2023/01/29 10:11:44;;;;;;;27.20;22.30;;;5.00;99.90;;;;;;4995108;28;20042;-65
2023/01/29 10:14:17;;;;;;;29.83;24.95;;;5.00;99.90;;;;;;4968114;28;20038;-65
2023/01/29 10:17:07;;;;;;;28.60;24.25;;;5.00;99.90;;;;;;5011955;28;20374;-65
2023/01/29 10:20:26;;;;;;;28.38;24.05;;;5.00;99.90;;;;;;5010623;28;20042;-65
2023/01/29 10:23:21;;;;;;;28.45;23.27;;;5.00;99.90;;;;;;4928751;29;20039;-65
2023/01/29 10:25:48;;;;;;;33.55;24.77;;;5.10;99.90;;;;;;5011437;28;20469;-65
2023/01/29 10:28:16;;;;;;;28.63;24.02;;;5.10;99.90;;;;;;5010472;28;20041;-65
2023/01/29 10:30:48;;;;;;;30.20;24.40;;;5.10;99.90;;;;;;5009997;28;20050;-65
2023/01/29 10:33:25;;;;;;;25.92;23.08;;;5.10;99.90;;;;;;5010932;28;20038;-65
2023/01/29 10:35:58;;;;;;;29.48;23.45;;;5.10;99.90;;;;;;4991173;28;20485;-64
2023/01/29 10:38:41;;;;;;;26.88;23.27;;;5.10;99.90;;;;;;5006265;28;20100;-65
2023/01/29 10:41:10;;;;;;;29.60;23.70;;;5.10;99.90;;;;;;5010618;28;20052;-65
2023/01/29 10:43:53;;;;;;;28.40;22.70;;;5.10;99.90;;;;;;5009491;28;20441;-65
2023/01/29 10:46:38;;;;;;;30.85;24.27;;;5.10;99.90;;;;;;4993171;28;20121;-65
2023/01/29 10:49:27;;;;;;;29.33;23.15;;;5.10;99.90;;;;;;5011211;28;20049;-65
2023/01/29 10:52:14;;;;;;;28.90;23.35;;;5.10;99.90;;;;;;4994186;28;20378;-65
2023/01/29 10:55:13;;;;;;;27.65;22.05;;;5.10;99.90;;;;;;5006406;28;20042;-65
2023/01/29 10:57:47;;;;;;;27.02;23.05;;;5.10;99.90;;;;;;5007189;28;20575;-65
2023/01/29 11:00:52;;;;;;;30.55;24.60;;;5.00;99.90;;;;;;5002517;28;20096;-65
2023/01/29 11:03:22;;;;;;;30.33;23.48;;;5.00;99.90;;;;;;4930049;29;20404;-65
2023/01/29 11:06:06;;;;;;;30.35;23.77;;;5.00;99.90;;;;;;4944198;28;20061;-65
2023/01/29 11:08:44;;;;;;;29.55;23.88;;;5.10;99.90;;;;;;4986741;28;20717;-65
2023/01/29 11:11:16;;;;;;;30.42;24.67;;;5.10;99.90;;;;;;5010109;28;20042;-64
2023/01/29 11:14:05;;;;;;;29.70;24.13;;;5.10;99.90;;;;;;5010664;28;20131;-65
2023/01/29 11:16:39;;;;;;;28.20;23.80;;;5.10;99.90;;;;;;5011323;28;20064;-65
2023/01/29 11:19:05;;;;;;;28.52;23.52;;;5.10;99.90;;;;;;5009628;28;20103;-64
2023/01/29 11:21:31;;;;;;;29.90;24.15;;;5.20;99.90;;;;;;5010105;28;20046;-65
2023/01/29 11:24:17;;;;;;;26.50;23.48;;;5.20;99.90;;;;;;5010155;28;20105;-65
2023/01/29 11:26:46;;;;;;;31.63;24.42;;;5.20;99.90;;;;;;5010744;28;20615;-65
2023/01/29 11:29:40;;;;;;;28.73;23.67;;;5.20;99.90;;;;;;5010685;28;20080;-65
2023/01/29 11:32:27;;;;;;;29.25;23.80;;;5.20;99.90;;;;;;5011058;28;20054;-65
2023/01/29 11:35:14;;;;;;;32.83;24.30;;;5.20;99.90;;;;;;5008420;28;20363;-65
2023/01/29 11:37:45;;;;;;;26.45;22.55;;;5.30;99.90;;;;;;5007351;28;20044;-65
2023/01/29 11:40:23;;;;;;;28.88;23.42;;;5.30;99.90;;;;;;5008332;28;20113;-65
2023/01/29 11:42:52;;;;;;;28.38;23.83;;;5.30;99.90;;;;;;5008206;28;20446;-65
2023/01/29 11:45:31;;;;;;;31.33;23.67;;;5.30;99.90;;;;;;5007164;28;20079;-65
2023/01/29 11:47:58;;;;;;;26.40;23.55;;;5.30;99.90;;;;;;5006398;28;20042;-65
2023/01/29 11:50:29;;;;;;;29.48;23.92;;;5.40;99.90;;;;;;4992793;28;20121;-65
2023/01/29 11:52:58;;;;;;;32.03;24.00;;;5.30;99.90;;;;;;5010526;28;20109;-65
2023/01/29 11:55:27;;;;;;;29.02;23.73;;;5.40;99.90;;;;;;5009859;28;20040;-65
2023/01/29 11:58:11;;;;;;;30.13;24.20;;;5.40;99.90;;;;;;5009025;28;20044;-65
2023/01/29 12:00:40;;;;;;;29.05;23.65;;;5.40;99.90;;;;;;5009490;28;20131;-65
2023/01/29 12:03:35;;;;;;;31.35;25.25;;;5.40;99.90;;;;;;4991178;28;20057;-65
2023/01/29 12:06:02;;;;;;;;;;;5.40;99.90;;;;;;5006985;28;20034;-65
2023/01/29 12:08:35;;;;;;;28.42;22.90;;;5.40;99.90;;;;;;5008885;28;19923;-65
2023/01/29 12:11:24;;;;;;;29.38;23.63;;;5.50;99.90;;;;;;5009861;28;20045;-65
2023/01/29 12:13:54;;;;;;;26.92;23.38;;;5.50;99.90;;;;;;5009772;28;20502;-65
2023/01/29 12:16:34;;;;;;;27.90;22.33;;;5.60;99.90;;;;;;5010740;28;20066;-65
2023/01/29 12:19:23;;;;;;;28.92;25.00;;;5.60;99.90;;;;;;4981450;28;20054;-65
2023/01/29 12:22:13;;;;;;;25.48;22.45;;;5.60;99.90;;;;;;5011027;28;20057;-65
2023/01/29 12:24:52;;;;;;;27.95;24.02;;;5.60;99.90;;;;;;4968468;28;20038;-65
2023/01/29 12:27:47;;;;;;;30.45;23.33;;;5.70;99.90;;;;;;5010093;28;20042;-65
2023/01/29 12:30:20;;;;;;;27.58;22.95;;;5.80;99.90;;;;;;5007414;28;20057;-65
2023/01/29 12:32:59;;;;;;;25.03;22.20;;;5.80;99.90;;;;;;5008415;28;20038;-66
2023/01/29 12:35:37;;;;;;;25.13;22.40;;;5.90;99.90;;;;;;5007672;28;20021;-65
2023/01/29 12:38:10;;;;;;;27.90;23.73;;;5.90;99.90;;;;;;4983290;28;20125;-65
2023/01/29 12:41:15;;;;;;;24.98;22.30;;;5.90;99.90;;;;;;5009629;28;20053;-65
2023/01/29 12:43:48;;;;;;;27.20;22.58;;;5.90;99.90;;;;;;4999848;28;20073;-65
2023/01/29 12:46:39;;;;;;;27.25;22.73;;;5.80;99.90;;;;;;5003945;28;20053;-65
2023/01/29 12:49:14;;;;;;;27.08;21.90;;;5.90;99.90;;;;;;4992070;28;20034;-65
2023/01/29 12:51:50;;;;;;;25.50;21.92;;;5.90;99.90;;;;;;5010374;28;20046;-65
2023/01/29 12:54:27;;;;;;;29.17;22.15;;;5.90;99.90;;;;;;5009223;28;20042;-65
2023/01/29 12:56:57;;;;;;;27.75;23.15;;;5.90;99.90;;;;;;4990928;28;20099;-65
2023/01/29 12:59:41;;;;;;;27.60;23.13;;;5.90;99.90;;;;;;4976416;28;20181;-65
2023/01/29 13:02:31;;;;;;;25.55;22.70;;;5.80;99.90;;;;;;5006928;28;20038;-65
2023/01/29 13:05:20;;;;;;;28.60;24.55;;;5.70;99.90;;;;;;5008427;28;20038;-65
2023/01/29 13:07:52;;;;;;;29.85;24.05;;;5.60;99.90;;;;;;4994823;28;20121;-65
2023/01/29 13:10:23;;;;;;;30.15;25.50;;;5.50;99.90;;;;;;5008770;28;20360;-65
2023/01/29 13:13:04;;;;;;;34.53;25.50;;;5.40;99.90;;;;;;5008502;28;20041;-65
2023/01/29 13:15:39;;;;;;;31.50;24.05;;;5.30;99.90;;;;;;5008457;28;20509;-65
2023/01/29 13:18:19;;;;;;;30.05;24.20;;;5.20;99.90;;;;;;5008788;28;20033;-64
2023/01/29 13:20:48;;;;;;;32.47;25.40;;;5.20;99.90;;;;;;5007534;28;20520;-65
2023/01/29 13:23:20;;;;;;;30.27;24.90;;;5.10;99.90;;;;;;5008455;28;20615;-65
2023/01/29 13:25:50;;;;;;;31.60;23.35;;;5.10;99.90;;;;;;5008840;28;20470;-65
2023/01/29 13:28:19;;;;;;;30.00;23.83;;;5.10;99.90;;;;;;5008433;28;20517;-65
2023/01/29 13:30:46;;;;;;;27.88;23.30;;;5.20;99.90;;;;;;5008460;28;20137;-65
2023/01/29 13:33:22;;;;;;;31.15;24.35;;;5.20;99.90;;;;;;5008627;28;20121;-65
2023/01/29 13:35:59;;;;;;;30.95;23.70;;;5.20;99.90;;;;;;5008397;28;20498;-65
2023/01/29 13:38:29;;;;;;;29.65;24.02;;;5.20;99.90;;;;;;5006518;28;20069;-65